Flight Track Log - Related Links

Times and Time Zones

All times are in EST time to prevent confusion due to time zone crossing. See the JBU695 flight status page for this flight to view local times or setup timezone preferences in your user account.


Time Position Orientation Groundspeed Altitude Reporting Facility
EST Latitude Longitude Course Direction KTS MPH feet Rate Location/Type
Mon 02:30:24 PM 41.0833 -73.7333 207° Southwest 139 160 1,800  Level New York TRACON
Mon 02:31:24 PM 41.0833 -73.7833 270° West 178 205 3,300 1,947 Climbing New York TRACON
Mon 02:32:00 PM 40.7661 -73.8483 205° Southwest  Level FlightAware Approximate
Mon 02:32:18 PM 41.0500 -73.8333 229° Southwest 231 266 5,500  Level New York TRACON
Mon 02:33:00 PM 40.6674 -73.9071 199° South  Level FlightAware Approximate
Mon 02:33:18 PM 40.9833 -73.8833 210° Southwest 269 310 8,800  Level New York TRACON
Mon 02:34:00 PM 40.5648 -73.9527 199° South  Level FlightAware Approximate
Mon 02:35:00 PM 40.4648 -74.0068 207° Southwest  Level FlightAware Approximate
Mon 02:35:18 PM 40.8500 -74.0000 214° Southwest 318 366 12,000  Level New York TRACON
Mon 02:37:18 PM 40.7000 -74.1167 211° Southwest 287 330 12,000  Level New York TRACON
Mon 02:38:18 PM 40.6333 -74.1500 201° Southwest 311 358 12,000 1,531 Level New York TRACON
Mon 02:40:30 PM 40.4303 -74.1872 188° South 334 384 16,900 2,277 Climbing New York Center
Mon 02:41:33 PM 40.3278 -74.2031 187° South 344 396 19,400 2,448 Climbing New York Center
Mon 02:42:35 PM 40.2292 -74.2175 186° South 350 403 22,000 2,177 Climbing New York Center
Mon 02:43:37 PM 40.1272 -74.2339 187° South 351 404 23,900 1,643 Climbing New York Center
Mon 02:45:12 PM 39.9875 -74.2756 193° South 351 404 26,300 1,548 Climbing Washington Center
Mon 02:46:12 PM 39.9050 -74.3528 216° Southwest 331 381 27,900 1,385 Climbing Washington Center
Mon 02:46:43 PM 39.8792 -74.3739 212° Southwest 332 382 28,400 1,574 Climbing New York Center
Mon 02:47:13 PM 39.8308 -74.4217 217° Southwest 338 389 29,500 1,933 Climbing Washington Center
Mon 02:48:13 PM 39.7689 -74.5008 225° Southwest 320 368 31,300 1,388 Climbing Washington Center
Mon 02:49:14 PM 39.7072 -74.5800 225° Southwest 315 362 32,300 1,059 Climbing Washington Center
Mon 02:50:12 PM 39.6433 -74.6644 226° Southwest 321 369 33,400 1,068 Climbing Washington Center
Mon 02:51:12 PM 39.5833 -74.7461 226° Southwest 321 369 34,400 900 Climbing Washington Center
Mon 02:52:12 PM 39.5131 -74.8061 213° Southwest 331 381 35,200 787 Climbing Washington Center
Mon 02:53:14 PM 39.4175 -74.8636 205° Southwest 343 395 36,000 393 Climbing Washington Center
Mon 02:54:14 PM 39.3261 -74.9181 205° Southwest 350 403 36,000  Level Washington Center
Mon 02:55:12 PM 39.2347 -74.9753 206° Southwest 363 418 36,000  Level Washington Center
Mon 02:56:13 PM 39.1433 -75.0322 206° Southwest 369 425 36,000  Level Washington Center
Mon 02:57:14 PM 39.0519 -75.0892 206° Southwest 369 425 36,000  Level Washington Center
Mon 02:58:12 PM 38.9603 -75.1458 206° Southwest 364 419 36,000  Level Washington Center
Mon 03:00:13 PM 38.7772 -75.2536 205° Southwest 364 419 36,000  Level Washington Center
Mon 03:01:13 PM 38.6856 -75.3097 206° Southwest 364 419 36,000 545 Level Washington Center
Mon 03:02:14 PM 38.5942 -75.3658 206° Southwest 364 419 37,100 1,008 Climbing Washington Center
Mon 03:03:12 PM 38.5044 -75.4192 205° Southwest 364 419 38,000 458 Climbing Washington Center
Mon 03:04:12 PM 38.4150 -75.4725 205° Southwest 358 412 38,000  Level Washington Center
Mon 03:05:14 PM 38.3233 -75.5308 207° Southwest 363 418 38,000  Level Washington Center
Mon 03:06:14 PM 38.2294 -75.5969 209° Southwest 371 427 38,000  Level Washington Center
Mon 03:07:12 PM 38.1378 -75.6603 209° Southwest 376 433 38,000  Level Washington Center
Mon 03:08:12 PM 38.0481 -75.7236 209° Southwest 371 427 38,000  Level Washington Center
Mon 03:09:13 PM 37.9728 -75.7867 213° Southwest 371 427 38,000  Level Washington Center
Mon 03:10:13 PM 37.8706 -75.8522 207° Southwest 366 421 38,000  Level Washington Center
Mon 03:11:12 PM 37.7806 -75.9122 208° Southwest 373 429 38,000  Level Washington Center
Mon 03:12:12 PM 37.7011 -75.9775 213° Southwest 373 429 38,000  Level Washington Center
Mon 03:13:13 PM 37.6114 -76.0400 209° Southwest 378 435 38,000  Level Washington Center
Mon 03:14:14 PM 37.5192 -76.1050 209° Southwest 378 435 38,000  Level Washington Center
Mon 03:15:11 PM 37.4189 -76.1697 207° Southwest 384 442 38,000  Level Washington Center
Mon 03:16:13 PM 37.3289 -76.2317 209° Southwest 379 436 38,000  Level Washington Center
Mon 03:17:13 PM 37.2367 -76.2961 209° Southwest 374 430 38,000  Level Washington Center
Mon 03:18:14 PM 37.1467 -76.3606 210° Southwest 374 430 38,000  Level Washington Center
Mon 03:22:12 PM 36.7881 -76.6061 207° Southwest 374 430 38,000  Level Washington Center
Mon 03:27:13 PM 36.3303 -76.9222 206° Southwest 379 436 38,000  Level Washington Center
Mon 03:28:14 PM 36.2356 -76.9825 207° Southwest 379 436 38,000  Level Washington Center
Mon 03:29:12 PM 36.1453 -77.0453 209° Southwest 379 436 38,000  Level Washington Center
Mon 03:30:13 PM 36.0506 -77.1053 207° Southwest 379 436 38,000  Level Washington Center
Mon 03:31:00 PM 35.9863 -77.1030 207° Southwest  Level Estimated
Mon 03:31:12 PM 35.9617 -77.1908 218° Southwest 379 436 38,000  Level Washington Center
Mon 03:32:00 PM 35.8950 -77.1588 206° Southwest  Level Estimated
Mon 03:32:13 PM 35.8836 -77.2686 219° Southwest 379 436 38,000  Level Washington Center
Mon 03:33:14 PM 35.8031 -77.3489 219° Southwest 379 436 38,000  Level Washington Center
Mon 03:34:12 PM 35.7183 -77.4264 217° Southwest 379 436 38,000  Level Washington Center
Mon 03:35:13 PM 35.6381 -77.5064 219° Southwest 379 436 38,000  Level Washington Center
Mon 03:36:13 PM 35.5553 -77.5861 218° Southwest 373 429 38,000  Level Washington Center
Mon 03:37:12 PM 35.4725 -77.6631 217° Southwest 373 429 38,000  Level Washington Center
Mon 03:38:12 PM 35.3897 -77.7397 217° Southwest 373 429 38,000  Level Washington Center
Mon 03:39:12 PM 35.3069 -77.8217 219° Southwest 373 429 38,000  Level Washington Center
Mon 03:40:14 PM 35.2242 -77.9008 218° Southwest 373 429 38,000  Level Washington Center
Mon 03:41:14 PM 35.1411 -77.9797 218° Southwest 373 429 38,000  Level Washington Center
Mon 03:42:12 PM 35.0561 -78.0583 217° Southwest 378 435 38,000  Level Washington Center
Mon 03:43:12 PM 34.9711 -78.1367 217° Southwest 378 435 38,000  Level Washington Center
Mon 03:44:14 PM 34.8900 -78.2128 218° Southwest 378 435 38,000  Level Washington Center
Mon 03:46:58 PM 34.6669 -78.4297 218° Southwest 400 460 38,000  Level Jacksonville Center
Mon 03:47:58 PM 34.5800 -78.5025 215° Southwest 400 460 38,000  Level Jacksonville Center
Mon 03:48:58 PM 34.4911 -78.5925 220° Southwest 394 453 38,000  Level Jacksonville Center
Mon 03:49:58 PM 34.4061 -78.6697 217° Southwest 389 448 38,000  Level Jacksonville Center
Mon 03:51:58 PM 34.2322 -78.8314 217° Southwest 394 453 38,000  Level Jacksonville Center
Mon 03:54:58 PM 33.9767 -79.0686 217° Southwest 394 453 38,000  Level Jacksonville Center
Mon 03:55:58 PM 33.8872 -79.1500 217° Southwest 405 466 38,000  Level Jacksonville Center
Mon 03:56:58 PM 33.8000 -79.2289 217° Southwest 405 466 38,000  Level Jacksonville Center
Mon 03:57:58 PM 33.7267 -79.2892 214° Southwest 405 466 38,000  Level Jacksonville Center
Mon 03:58:58 PM 33.6350 -79.3728 217° Southwest 400 460 38,000  Level Jacksonville Center
Mon 03:59:58 PM 33.5475 -79.4511 217° Southwest 400 460 38,000  Level Jacksonville Center
Mon 04:00:00 PM 33.5859 -79.4156 217° Southwest  Level FlightAware Approximate
Mon 04:00:58 PM 33.4600 -79.5317 218° Southwest 405 466 38,000  Level Jacksonville Center
Mon 04:01:58 PM 33.3744 -79.6119 218° Southwest 405 466 38,000  Level Jacksonville Center
Mon 04:02:58 PM 33.2867 -79.6897 217° Southwest 405 466 38,000  Level Jacksonville Center
Mon 04:03:58 PM 33.1967 -79.7700 217° Southwest 405 466 38,000  Level Jacksonville Center
Mon 04:04:58 PM 33.1089 -79.8472 216° Southwest 405 466 38,000  Level Jacksonville Center
Mon 04:05:58 PM 33.0189 -79.9247 216° Southwest 405 466 38,000  Level Jacksonville Center
Mon 04:06:58 PM 32.9269 -80.0044 216° Southwest 405 466 38,000  Level Jacksonville Center
Mon 04:07:58 PM 32.8264 -80.0869 215° Southwest 405 466 38,000  Level Jacksonville Center
Mon 04:08:58 PM 32.7319 -80.1589 213° Southwest 405 466 38,000  Level Jacksonville Center
Mon 04:10:58 PM 32.5450 -80.2975 209° Southwest 400 460 38,000  Level Jacksonville Center
Mon 04:12:58 PM 32.3556 -80.4358 212° Southwest 406 467 38,000  Level Jacksonville Center
Mon 04:13:58 PM 32.2589 -80.5047 211° Southwest 407 468 38,000  Level Jacksonville Center
Mon 04:14:58 PM 32.1642 -80.5758 212° Southwest 407 468 38,000  Level Jacksonville Center
Mon 04:15:58 PM 32.0714 -80.6444 212° Southwest 407 468 38,000  Level Jacksonville Center
Mon 04:16:58 PM 31.9869 -80.7053 211° Southwest 407 468 38,000  Level Jacksonville Center
Mon 04:17:58 PM 31.8797 -80.7786 210° Southwest 407 468 38,000  Level Jacksonville Center
Mon 04:20:00 PM 31.7021 -80.8983 210° Southwest  Level FlightAware Approximate
Mon 04:20:58 PM 31.5928 -80.9878 210° Southwest 407 468 38,000  Level Jacksonville Center
Mon 04:22:58 PM 31.3594 -81.0364 186° South 433 498 38,000 -125 Level Jacksonville Center
Mon 04:24:58 PM 31.1181 -81.0775 182° South 438 504 37,500 -500 Descending Jacksonville Center
Mon 04:25:58 PM 30.9972 -81.0992 189° South 438 504 36,500 -1,000 Descending Jacksonville Center
Mon 04:27:58 PM 30.7556 -81.1328 187° South 443 510 34,500 -833 Descending Jacksonville Center
Mon 04:28:58 PM 30.6325 -81.1519 188° South 443 510 34,000 -250 Descending Jacksonville Center
Mon 04:29:58 PM 30.5072 -81.1494 179° South 443 510 34,000  Level Jacksonville Center
Mon 04:30:58 PM 30.3797 -81.1469 179° South 443 510 34,000  Level Jacksonville Center
Mon 04:31:58 PM 30.2525 -81.1419 178° South 448 516 34,000 -250 Level Jacksonville Center
Mon 04:32:58 PM 30.1417 -81.1392 179° South 453 521 33,500 -1,450 Descending Jacksonville Center
Mon 04:33:58 PM 30.0164 -81.1367 179° South 458 527 31,100 -2,450 Descending Jacksonville Center
Mon 04:34:58 PM 29.8869 -81.1319 178° South 458 527 28,600 -2,467 Descending Jacksonville Center
Mon 04:36:58 PM 29.6322 -81.1269 180° South 458 527 23,700 -2,400 Descending Jacksonville Center
Mon 04:37:58 PM 29.5153 -81.1242 179° South 445 512 21,400 -2,250 Descending Jacksonville Center
Mon 04:38:58 PM 29.4003 -81.1192 178° South 425 489 19,200 -2,200 Descending Jacksonville Center
Mon 04:39:58 PM 29.2917 -81.1139 178° South 411 473 17,000 -2,100 Descending Jacksonville Center
Mon 04:41:58 PM 29.0744 -81.0964 176° South 398 458 12,900 -1,667 Descending Jacksonville Center
Mon 04:42:58 PM 28.9742 -81.0889 176° South 386 444 12,000 -450 Descending Jacksonville Center
Mon 04:43:58 PM 28.8700 -81.1050 188° South 380 437 12,000 -650 Level Jacksonville Center
Mon 04:44:58 PM 28.7681 -81.1281 191° South 380 437 10,700 -1,000 Descending Jacksonville Center
Mon 04:45:58 PM 28.6744 -81.1417 187° South 367 422 10,000 -700 Descending Jacksonville Center
Mon 04:46:58 PM 28.5931 -81.1547 188° South 332 382 9,300 -503 Descending Jacksonville Center
Mon 04:48:21 PM 28.4833 -81.1667 185° South 252 290 8,800 -587 Descending Orlando TRACON
Mon 04:49:21 PM 28.4167 -81.1833 192° South 233 268 7,900 -1,250 Descending Orlando TRACON
Mon 04:50:21 PM 28.3500 -81.1833 180° South 230 265 6,300 -1,650 Descending Orlando TRACON
Mon 04:51:21 PM 28.2833 -81.1833 180° South 225 259 4,600 -1,785 Descending Orlando TRACON
Mon 04:52:22 PM 28.2833 -81.2500 270° West 213 245 2,700 -1,488 Descending Orlando TRACON
Mon 04:53:22 PM 28.3000 -81.3167 286° West 212 244 1,600 -650 Descending Orlando TRACON
Mon 04:54:22 PM 28.3500 -81.3167 360° North 124 143 1,400 -400 Descending Orlando TRACON
Mon 04:55:22 PM 28.3833 -81.3167 360° North 134 154 800 -600 Descending Orlando TRACON

Login

Don't have an account? Register now (free) for customized features, flight alerts, and more!